Time;durP1;ratioP1;P1;durP2;ratioP2;P2;SDS_P1;SDS_P2;PMS_P1;PMS_P2;Temp;Humidity;BMP_temperature;BMP_pressure;BME280_temperature;BME280_humidity;BME280_pressure;Samples;Min_cycle;Max_cycle;Signal;HPM_P1;HPM_P2
2024/03/19 00:00:48;;;;;;;5.03;3.53;;;;;10.20;98666.00;;;;4917189;29;20043;-68
2024/03/19 00:03:14;;;;;;;4.72;4.15;;;;;10.30;98670.00;;;;4917475;29;20047;-68
2024/03/19 00:05:40;;;;;;;6.20;3.95;;;;;10.20;98669.00;;;;4917440;29;20066;-68
2024/03/19 00:08:06;;;;;;;6.70;4.25;;;;;10.20;98672.00;;;;4933046;29;20051;-68
2024/03/19 00:10:32;;;;;;;4.80;3.65;;;;;10.10;98663.00;;;;4917277;29;20047;-68
2024/03/19 00:12:57;;;;;;;7.43;4.57;;;;;10.00;98663.00;;;;4917258;29;20155;-68
2024/03/19 00:15:23;;;;;;;7.00;3.92;;;;;9.90;98656.00;;;;4916912;29;20087;-68
2024/03/19 00:17:50;;;;;;;4.25;3.85;;;;;10.00;98662.00;;;;4917245;29;20395;-68
2024/03/19 00:20:16;;;;;;;4.45;3.83;;;;;10.10;98662.00;;;;4917151;29;20048;-68
2024/03/19 00:22:41;;;;;;;5.80;3.88;;;;;10.00;98669.00;;;;4917280;29;20706;-68
2024/03/19 00:25:07;;;;;;;6.50;3.97;;;;;9.80;98664.00;;;;4917140;29;20135;-68
2024/03/19 00:27:33;;;;;;;5.22;4.38;;;;;9.80;98666.00;;;;4917260;29;20075;-68
2024/03/19 00:30:00;;;;;;;6.20;4.60;;;;;9.80;98663.00;;;;4903529;29;20048;-68
2024/03/19 00:32:30;;;;;;;6.68;4.20;;;;;9.70;98670.00;;;;4936146;29;20050;-68
2024/03/19 00:34:57;;;;;;;5.57;3.83;;;;;9.60;98661.00;;;;4920644;29;20174;-68
2024/03/19 00:37:23;;;;;;;5.32;3.83;;;;;9.60;98661.00;;;;4904471;29;20043;-68
2024/03/19 00:39:49;;;;;;;6.97;4.05;;;;;9.50;98667.00;;;;4920723;29;20100;-68
2024/03/19 00:42:14;;;;;;;4.93;3.70;;;;;9.40;98666.00;;;;4920248;29;20052;-68
2024/03/19 00:44:40;;;;;;;5.82;3.70;;;;;9.40;98660.00;;;;4920230;29;20090;-68
2024/03/19 00:47:06;;;;;;;5.55;4.20;;;;;9.30;98652.00;;;;4919058;29;20715;-68
2024/03/19 00:49:31;;;;;;;4.95;3.92;;;;;9.40;98657.00;;;;4920246;29;20071;-68
2024/03/19 00:51:57;;;;;;;4.82;3.75;;;;;9.30;98664.00;;;;4919905;29;20055;-68
2024/03/19 00:54:23;;;;;;;7.07;4.72;;;;;9.20;98652.00;;;;4920462;29;20094;-68
2024/03/19 00:56:48;;;;;;;6.03;4.55;;;;;9.20;98657.00;;;;4920289;29;20132;-68
2024/03/19 00:59:14;;;;;;;5.18;4.30;;;;;9.20;98658.00;;;;4936011;29;20095;-67
2024/03/19 01:01:40;;;;;;;4.78;3.60;;;;;9.30;98657.00;;;;4919907;29;20048;-67
2024/03/19 01:04:05;;;;;;;4.40;3.40;;;;;9.20;98654.00;;;;4920217;29;20098;-66
2024/03/19 01:06:37;;;;;;;3.70;2.95;;;;;9.10;98653.00;;;;4904418;29;20130;-69
2024/03/19 01:09:12;;;;;;;4.03;3.22;;;;;9.10;98649.00;;;;4935846;29;20048;-69
2024/03/19 01:11:39;;;;;;;4.28;3.63;;;;;9.10;98644.00;;;;4919770;29;20488;-67
2024/03/19 01:14:05;;;;;;;4.18;3.15;;;;;9.10;98644.00;;;;4919780;29;20043;-67
2024/03/19 01:16:32;;;;;;;4.47;3.45;;;;;9.10;98648.00;;;;4919694;29;20032;-70
2024/03/19 01:18:58;;;;;;;5.18;3.75;;;;;9.10;98645.00;;;;4935499;29;20602;-67
2024/03/19 01:21:24;;;;;;;3.72;3.33;;;;;9.20;98642.00;;;;4935721;29;20059;-67
2024/03/19 01:23:50;;;;;;;4.15;3.40;;;;;9.30;98642.00;;;;4920149;29;20078;-66
2024/03/19 01:26:15;;;;;;;6.68;3.70;;;;;9.20;98648.00;;;;4935344;29;20142;-67
2024/03/19 01:28:41;;;;;;;5.97;3.95;;;;;9.10;98644.00;;;;4920143;29;20043;-66
2024/03/19 01:31:07;;;;;;;5.72;3.33;;;;;9.10;98642.00;;;;4919809;29;20527;-66
2024/03/19 01:33:32;;;;;;;4.15;3.33;;;;;9.10;98648.00;;;;4935470;29;20044;-67
2024/03/19 01:35:58;;;;;;;3.72;3.33;;;;;9.20;98644.00;;;;4920006;29;20040;-68
2024/03/19 01:38:25;;;;;;;3.90;3.22;;;;;9.20;98640.00;;;;4919971;29;20051;-69
2024/03/19 01:40:51;;;;;;;5.40;3.63;;;;;9.20;98644.00;;;;4919179;29;20040;-67
2024/03/19 01:43:21;;;;;;;5.85;4.13;;;;;9.30;98643.00;;;;4919527;29;20496;-66
2024/03/19 01:46:08;;;;;;;4.63;3.78;;;;;9.30;98641.00;;;;4903471;29;20051;-68
2024/03/19 01:48:34;;;;;;;3.70;3.35;;;;;9.30;98642.00;;;;4910782;29;20036;-68
2024/03/19 01:51:00;;;;;;;4.72;3.65;;;;;9.30;98646.00;;;;4915745;29;20067;-68
2024/03/19 01:53:27;;;;;;;5.13;3.47;;;;;9.30;98636.00;;;;4915841;29;20051;-68
2024/03/19 01:55:53;;;;;;;4.80;3.70;;;;;9.30;98646.00;;;;4900407;29;20398;-69
2024/03/19 01:58:21;;;;;;;3.63;3.28;;;;;9.30;98641.00;;;;4916467;29;20040;-68
2024/03/19 02:00:47;;;;;;;5.18;3.80;;;;;9.30;98636.00;;;;4915702;29;20051;-67
2024/03/19 02:03:14;;;;;;;3.88;3.47;;;;;9.30;98628.00;;;;4916002;29;20040;-67
2024/03/19 02:05:47;;;;;;;4.18;3.55;;;;;9.30;98639.00;;;;4915620;29;20040;-67
2024/03/19 02:08:13;;;;;;;3.70;3.30;;;;;9.20;98629.00;;;;4915868;29;20532;-68
2024/03/19 02:10:39;;;;;;;4.55;3.88;;;;;9.20;98626.00;;;;4915542;29;20052;-67
2024/03/19 02:13:05;;;;;;;4.00;3.60;;;;;9.00;98615.00;;;;4915839;29;20385;-67
2024/03/19 02:15:31;;;;;;;5.55;3.90;;;;;8.80;98625.00;;;;4918849;29;20043;-67
2024/03/19 02:17:56;;;;;;;5.07;3.58;;;;;8.50;98607.00;;;;4926501;29;20075;-67
2024/03/19 02:20:22;;;;;;;4.45;3.45;;;;;8.40;98611.00;;;;4934406;29;20082;-67
2024/03/19 02:22:49;;;;;;;4.93;4.05;;;;;8.40;98615.00;;;;4918782;29;20107;-67
2024/03/19 02:25:19;;;;;;;6.00;4.30;;;;;8.40;98612.00;;;;4918621;29;20051;-68
2024/03/19 02:27:45;;;;;;;7.13;4.68;;;;;8.30;98614.00;;;;4934273;29;20044;-67
2024/03/19 02:30:11;;;;;;;6.65;4.38;;;;;8.30;98611.00;;;;4918724;29;20047;-66
2024/03/19 02:32:37;;;;;;;11.88;5.05;;;;;8.30;98602.00;;;;4918327;29;20571;-66
2024/03/19 02:35:03;;;;;;;9.25;4.88;;;;;8.10;98609.00;;;;4918197;29;20515;-66
2024/03/19 02:37:29;;;;;;;12.40;5.38;;;;;8.10;98613.00;;;;4918565;29;20069;-66
2024/03/19 02:39:54;;;;;;;16.67;5.20;;;;;8.20;98615.00;;;;4918318;29;20122;-67
2024/03/19 02:42:20;;;;;;;10.88;5.30;;;;;8.30;98606.00;;;;4918212;29;20043;-67
2024/03/19 02:44:46;;;;;;;9.02;4.85;;;;;8.40;98612.00;;;;4918299;29;20063;-67
2024/03/19 02:47:12;;;;;;;14.95;4.90;;;;;8.30;98610.00;;;;4918195;29;20103;-66
2024/03/19 02:49:38;;;;;;;10.57;4.80;;;;;8.40;98623.00;;;;4918190;29;20063;-66
2024/03/19 02:52:04;;;;;;;8.52;5.43;;;;;8.60;98616.00;;;;4917358;29;20044;-66
2024/03/19 02:54:29;;;;;;;61.83;7.30;;;;;8.60;98620.00;;;;4918211;29;20043;-67
2024/03/19 02:56:55;;;;;;;8.95;5.10;;;;;8.60;98616.00;;;;4917920;29;20056;-67
2024/03/19 02:59:21;;;;;;;22.40;4.90;;;;;8.50;98624.00;;;;4917889;29;20095;-67
2024/03/19 03:01:47;;;;;;;17.73;4.97;;;;;8.30;98626.00;;;;4917764;29;20378;-67
2024/03/19 03:04:13;;;;;;;9.65;4.65;;;;;8.20;98635.00;;;;4917645;29;20043;-68
2024/03/19 03:06:39;;;;;;;15.30;4.70;;;;;8.20;98633.00;;;;4917841;29;20054;-68
2024/03/19 03:09:06;;;;;;;6.78;4.65;;;;;8.30;98635.00;;;;4917897;29;20048;-68
2024/03/19 03:11:32;;;;;;;12.73;5.13;;;;;8.40;98640.00;;;;4901938;29;20452;-68
2024/03/19 03:13:58;;;;;;;6.85;4.57;;;;;8.40;98630.00;;;;4917775;29;20052;-68
2024/03/19 03:16:24;;;;;;;6.47;4.75;;;;;8.50;98638.00;;;;4918937;29;20419;-68
2024/03/19 03:18:50;;;;;;;7.35;4.60;;;;;8.70;98635.00;;;;4917339;29;20052;-68
2024/03/19 03:21:17;;;;;;;5.40;4.38;;;;;8.90;98644.00;;;;4917647;29;20062;-68
2024/03/19 03:23:44;;;;;;;5.43;4.45;;;;;8.90;98646.00;;;;4917990;29;20043;-68
2024/03/19 03:26:10;;;;;;;6.35;4.57;;;;;8.90;98636.00;;;;4917864;29;20062;-68
2024/03/19 03:28:35;;;;;;;6.53;4.30;;;;;8.80;98638.00;;;;4917618;29;20059;-68
2024/03/19 03:31:04;;;;;;;7.18;4.60;;;;;8.90;98636.00;;;;4932972;29;20058;-68
2024/03/19 03:33:30;;;;;;;5.25;3.97;;;;;9.00;98638.00;;;;4917290;29;20060;-68
2024/03/19 03:35:57;;;;;;;7.70;4.55;;;;;9.10;98641.00;;;;4933429;29;20047;-69
2024/03/19 03:38:23;;;;;;;6.10;4.38;;;;;9.10;98635.00;;;;4917541;29;20056;-68
2024/03/19 03:40:48;;;;;;;6.30;4.47;;;;;9.10;98635.00;;;;4933466;29;20043;-69
2024/03/19 03:43:14;;;;;;;14.77;5.30;;;;;9.00;98631.00;;;;4917874;29;20040;-70
2024/03/19 03:45:40;;;;;;;10.57;4.60;;;;;8.80;98634.00;;;;4917617;29;20071;-68
2024/03/19 03:48:06;;;;;;;9.70;5.18;;;;;8.90;98627.00;;;;4917296;29;20051;-69
2024/03/19 03:50:32;;;;;;;7.78;5.07;;;;;9.00;98628.00;;;;4917053;29;20060;-68
2024/03/19 03:52:58;;;;;;;8.73;4.95;;;;;8.90;98627.00;;;;4917293;29;20079;-68
2024/03/19 03:55:24;;;;;;;9.68;4.90;;;;;8.80;98626.00;;;;4933174;29;20055;-68
2024/03/19 03:57:50;;;;;;;8.98;4.90;;;;;8.60;98618.00;;;;4917378;29;20124;-68
2024/03/19 04:00:18;;;;;;;12.10;6.18;;;;;8.50;98617.00;;;;4932940;29;20066;-67
2024/03/19 04:02:45;;;;;;;17.55;5.68;;;;;8.50;98627.00;;;;4917500;29;20047;-67
2024/03/19 04:05:12;;;;;;;10.43;5.22;;;;;8.40;98624.00;;;;4936642;29;20500;-67
2024/03/19 04:07:39;;;;;;;12.73;6.07;;;;;8.40;98628.00;;;;4905310;29;20051;-68
2024/03/19 04:10:13;;;;;;;9.93;5.18;;;;;8.40;98638.00;;;;4920811;29;20059;-68
2024/03/19 04:12:39;;;;;;;12.57;5.53;;;;;8.40;98645.00;;;;4920634;29;20091;-68
2024/03/19 04:15:06;;;;;;;12.85;6.13;;;;;8.40;98640.00;;;;4920559;29;20044;-67
2024/03/19 04:17:35;;;;;;;10.73;5.95;;;;;8.40;98637.00;;;;4928786;29;20044;-67
2024/03/19 04:20:05;;;;;;;12.48;5.80;;;;;8.50;98637.00;;;;4917530;29;20110;-67
2024/03/19 04:22:35;;;;;;;17.45;6.57;;;;;8.50;98645.00;;;;4901663;29;20469;-67
2024/03/19 04:25:06;;;;;;;13.45;6.28;;;;;8.40;98642.00;;;;4902055;29;20048;-67
2024/03/19 04:27:31;;;;;;;17.60;5.35;;;;;8.40;98644.00;;;;4886362;29;20425;-67
2024/03/19 04:29:57;;;;;;;11.48;6.15;;;;;8.30;98642.00;;;;4901898;29;20040;-67
2024/03/19 04:32:22;;;;;;;12.02;6.60;;;;;8.30;98641.00;;;;4901516;29;20048;-67
2024/03/19 04:34:48;;;;;;;12.10;6.57;;;;;8.40;98636.00;;;;4901865;29;20456;-67
2024/03/19 04:37:14;;;;;;;14.02;5.93;;;;;8.50;98639.00;;;;4901860;29;20040;-67
2024/03/19 04:39:39;;;;;;;16.50;6.32;;;;;8.50;98635.00;;;;4902062;29;20039;-67
2024/03/19 04:42:05;;;;;;;12.43;6.20;;;;;8.50;98643.00;;;;4886091;29;20044;-67
2024/03/19 04:44:31;;;;;;;16.70;6.03;;;;;8.50;98644.00;;;;4901387;29;20059;-68
2024/03/19 04:47:00;;;;;;;15.23;5.82;;;;;8.50;98651.00;;;;4922805;29;20039;-67
2024/03/19 04:49:25;;;;;;;13.00;6.18;;;;;8.60;98651.00;;;;4928013;29;20088;-68
2024/03/19 04:51:51;;;;;;;19.77;6.80;;;;;8.50;98642.00;;;;4906314;29;20048;-67
2024/03/19 04:54:17;;;;;;;13.20;5.57;;;;;8.50;98638.00;;;;4911487;29;20039;-67
2024/03/19 04:56:42;;;;;;;15.73;5.97;;;;;8.60;98656.00;;;;4896868;29;20079;-67
2024/03/19 04:59:08;;;;;;;15.25;6.95;;;;;8.80;98661.00;;;;4921424;29;20101;-68
2024/03/19 05:01:34;;;;;;;13.80;7.47;;;;;8.90;98649.00;;;;4902539;29;20047;-69
2024/03/19 05:03:59;;;;;;;17.23;7.15;;;;;8.90;98650.00;;;;4903756;29;20084;-68
2024/03/19 05:06:25;;;;;;;14.93;6.55;;;;;9.00;98651.00;;;;4918846;29;20051;-69
2024/03/19 05:08:51;;;;;;;14.80;6.63;;;;;9.00;98656.00;;;;4913511;29;20067;-67
2024/03/19 05:11:16;;;;;;;24.20;6.65;;;;;8.80;98664.00;;;;4902828;29;20059;-67
2024/03/19 05:13:42;;;;;;;19.58;6.30;;;;;8.70;98655.00;;;;4901352;29;20100;-67
2024/03/19 05:16:07;;;;;;;16.27;6.75;;;;;8.50;98644.00;;;;4924082;29;20520;-67
2024/03/19 05:18:33;;;;;;;17.60;6.90;;;;;8.50;98656.00;;;;4919751;29;20039;-67
2024/03/19 05:20:59;;;;;;;29.20;10.52;;;;;8.50;98652.00;;;;4903819;29;20048;-67
2024/03/19 05:23:24;;;;;;;19.67;7.57;;;;;8.60;98646.00;;;;4919827;29;20039;-67
2024/03/19 05:25:51;;;;;;;26.73;7.40;;;;;8.60;98646.00;;;;4935270;29;20079;-67
2024/03/19 05:28:16;;;;;;;19.80;7.03;;;;;8.60;98642.00;;;;4935433;29;20152;-67
2024/03/19 05:30:43;;;;;;;31.38;7.30;;;;;8.60;98645.00;;;;4919177;29;20570;-67
2024/03/19 05:33:09;;;;;;;46.67;8.60;;;;;8.70;98653.00;;;;4935494;29;20043;-68
2024/03/19 05:35:34;;;;;;;23.52;7.28;;;;;8.70;98658.00;;;;4919918;29;20701;-68
2024/03/19 05:38:00;;;;;;;22.20;7.50;;;;;8.70;98654.00;;;;4921398;29;20501;-68
2024/03/19 05:40:26;;;;;;;16.40;7.32;;;;;8.70;98653.00;;;;4919521;29;20413;-67
2024/03/19 05:42:52;;;;;;;26.88;8.57;;;;;8.90;98656.00;;;;4937378;29;20127;-67
2024/03/19 05:45:17;;;;;;;22.75;7.82;;;;;9.00;98659.00;;;;4905706;29;20051;-66
2024/03/19 05:47:45;;;;;;;24.52;8.45;;;;;9.00;98662.00;;;;4920386;29;20047;-67
2024/03/19 05:50:12;;;;;;;24.55;10.20;;;;;9.10;98660.00;;;;4935948;29;20047;-67
2024/03/19 05:52:39;;;;;;;25.38;8.00;;;;;9.30;98664.00;;;;4920061;29;20044;-67
2024/03/19 05:55:05;;;;;;;26.02;6.82;;;;;9.40;98661.00;;;;4920553;29;20051;-67
2024/03/19 05:57:31;;;;;;;24.83;7.10;;;;;9.20;98661.00;;;;4939030;29;20043;-67
2024/03/19 05:59:57;;;;;;;17.30;6.13;;;;;9.20;98674.00;;;;4926118;29;20105;-67
2024/03/19 06:02:22;;;;;;;25.98;7.50;;;;;9.30;98674.00;;;;4922372;29;20551;-67
2024/03/19 06:04:48;;;;;;;39.30;7.32;;;;;9.50;98676.00;;;;4935256;29;20043;-67
2024/03/19 06:07:14;;;;;;;16.77;6.63;;;;;9.70;98676.00;;;;4918990;29;20048;-66
2024/03/19 06:09:43;;;;;;;21.77;6.55;;;;;9.70;98675.00;;;;4918946;29;20063;-67
2024/03/19 06:12:12;;;;;;;17.65;6.40;;;;;9.80;98675.00;;;;4934296;29;20044;-67
2024/03/19 06:14:39;;;;;;;15.65;7.85;;;;;9.80;98679.00;;;;4918887;29;20044;-67
2024/03/19 06:17:06;;;;;;;10.85;5.85;;;;;9.80;98674.00;;;;4917230;29;20125;-67
2024/03/19 06:19:33;;;;;;;13.13;6.15;;;;;9.60;98674.00;;;;4920232;29;20106;-67
2024/03/19 06:21:58;;;;;;;9.55;5.20;;;;;9.70;98667.00;;;;4902647;29;20069;-67
2024/03/19 06:24:24;;;;;;;11.48;6.10;;;;;9.80;98677.00;;;;4934513;29;20051;-67
2024/03/19 06:26:49;;;;;;;10.60;5.50;;;;;9.80;98673.00;;;;4917955;29;20054;-67
2024/03/19 06:29:15;;;;;;;9.30;5.55;;;;;10.00;98669.00;;;;4934344;29;20051;-67
2024/03/19 06:31:41;;;;;;;7.68;4.88;;;;;10.20;98672.00;;;;4918022;29;20051;-67
2024/03/19 06:34:07;;;;;;;8.02;4.70;;;;;10.10;98674.00;;;;4918259;29;20423;-68
2024/03/19 06:36:32;;;;;;;6.70;4.47;;;;;9.90;98683.00;;;;4918475;29;20109;-67
2024/03/19 06:38:58;;;;;;;11.30;5.20;;;;;9.70;98685.00;;;;4918508;29;20054;-67
2024/03/19 06:41:23;;;;;;;10.82;4.80;;;;;9.80;98685.00;;;;4917946;29;20075;-66
2024/03/19 06:43:49;;;;;;;12.45;4.88;;;;;10.00;98692.00;;;;4918246;29;20057;-68
2024/03/19 06:46:15;;;;;;;9.77;5.47;;;;;10.20;98694.00;;;;4933625;29;20640;-66
2024/03/19 06:48:43;;;;;;;19.10;5.45;;;;;10.40;98696.00;;;;4918242;29;20036;-67
2024/03/19 06:51:09;;;;;;;9.45;5.72;;;;;10.60;98703.00;;;;4917759;29;20054;-67
2024/03/19 06:53:34;;;;;;;12.93;5.53;;;;;10.70;98704.00;;;;4917925;29;20043;-67
2024/03/19 06:56:00;;;;;;;11.88;5.63;;;;;10.70;98705.00;;;;4918228;29;20043;-68
2024/03/19 06:58:27;;;;;;;23.48;10.35;;;;;10.80;98712.00;;;;4917852;29;20126;-68
2024/03/19 07:00:52;;;;;;;18.52;6.88;;;;;10.90;98716.00;;;;4902216;29;20047;-67
2024/03/19 07:03:18;;;;;;;13.70;5.90;;;;;10.90;98719.00;;;;4918139;29;20051;-68
2024/03/19 07:05:45;;;;;;;12.18;6.70;;;;;11.00;98722.00;;;;4918194;29;20070;-69
2024/03/19 07:08:12;;;;;;;12.68;7.13;;;;;11.10;98729.00;;;;4918055;29;20052;-67
2024/03/19 07:10:38;;;;;;;11.07;6.95;;;;;11.10;98722.00;;;;4917490;29;20103;-68
2024/03/19 07:13:04;;;;;;;10.45;7.20;;;;;10.90;98728.00;;;;4917549;29;20417;-67
2024/03/19 07:15:31;;;;;;;13.25;7.10;;;;;10.70;98724.00;;;;4917244;29;20103;-67
2024/03/19 07:17:57;;;;;;;12.45;6.72;;;;;10.70;98727.00;;;;4917549;29;20050;-68
2024/03/19 07:20:24;;;;;;;11.32;7.15;;;;;10.90;98732.00;;;;4917141;29;20052;-67
2024/03/19 07:22:50;;;;;;;12.00;7.25;;;;;11.00;98734.00;;;;4917688;29;20036;-68
2024/03/19 07:25:17;;;;;;;8.50;5.80;;;;;11.10;98738.00;;;;4917629;29;20103;-67
2024/03/19 07:27:43;;;;;;;10.27;6.50;;;;;11.10;98738.00;;;;4917677;29;20169;-67
2024/03/19 07:30:11;;;;;;;10.32;6.30;;;;;11.10;98740.00;;;;4917923;29;20111;-67
2024/03/19 07:32:41;;;;;;;11.35;7.05;;;;;11.00;98734.00;;;;4917232;29;20036;-66
2024/03/19 07:35:08;;;;;;;10.88;6.22;;;;;11.00;98742.00;;;;4917518;29;20276;-66
2024/03/19 07:37:36;;;;;;;9.50;6.40;;;;;11.20;98749.00;;;;4917627;29;20063;-66
2024/03/19 07:40:03;;;;;;;13.52;6.65;;;;;11.20;98742.00;;;;4921367;29;20047;-66
2024/03/19 07:42:29;;;;;;;11.98;6.80;;;;;11.20;98746.00;;;;4921182;29;20090;-67
2024/03/19 07:44:55;;;;;;;8.93;6.40;;;;;11.40;98742.00;;;;4921137;29;20052;-66
2024/03/19 07:47:20;;;;;;;7.90;5.70;;;;;11.50;98751.00;;;;4918010;29;20492;-66
2024/03/19 07:49:46;;;;;;;10.55;6.15;;;;;11.70;98756.00;;;;4917569;29;20044;-67
2024/03/19 07:52:14;;;;;;;9.73;6.30;;;;;11.70;98765.00;;;;4921083;29;20606;-67
2024/03/19 07:54:40;;;;;;;9.05;5.63;;;;;11.80;98759.00;;;;4920974;29;20043;-68
2024/03/19 07:57:06;;;;;;;8.18;6.15;;;;;11.70;98765.00;;;;4921054;29;20063;-69
2024/03/19 07:59:32;;;;;;;9.43;6.32;;;;;11.80;98761.00;;;;4921192;29;20039;-69
2024/03/19 08:01:58;;;;;;;8.77;6.22;;;;;11.90;98754.00;;;;4921043;29;20063;-68
2024/03/19 08:04:24;;;;;;;8.48;5.45;;;;;11.90;98769.00;;;;4921382;29;20098;-66
2024/03/19 08:06:50;;;;;;;9.10;6.00;;;;;11.90;98771.00;;;;4921417;29;20048;-68
2024/03/19 08:09:17;;;;;;;10.27;7.18;;;;;11.60;98769.00;;;;4921357;29;20083;-66
2024/03/19 08:11:43;;;;;;;11.25;6.88;;;;;11.30;98773.00;;;;4920917;29;20052;-67
2024/03/19 08:14:08;;;;;;;12.35;7.43;;;;;11.10;98772.00;;;;4920964;29;20095;-66
2024/03/19 08:16:34;;;;;;;9.65;6.65;;;;;11.10;98776.00;;;;4923135;29;20040;-67
2024/03/19 08:19:00;;;;;;;9.02;6.72;;;;;11.40;98766.00;;;;4922734;29;20404;-66
2024/03/19 08:21:26;;;;;;;12.43;7.82;;;;;11.50;98771.00;;;;4920488;29;20055;-67
2024/03/19 08:23:53;;;;;;;9.07;6.80;;;;;11.70;98776.00;;;;4920836;29;20039;-67
2024/03/19 08:26:18;;;;;;;9.93;6.70;;;;;11.90;98782.00;;;;4920587;29;20095;-67
2024/03/19 08:28:44;;;;;;;10.50;7.10;;;;;12.10;98774.00;;;;4920530;29;20040;-67
2024/03/19 08:31:10;;;;;;;12.32;7.25;;;;;12.30;98783.00;;;;4920223;29;20124;-67
2024/03/19 08:33:37;;;;;;;10.07;7.10;;;;;12.60;98782.00;;;;4920785;29;20528;-67
2024/03/19 08:36:06;;;;;;;13.25;9.43;;;;;12.70;98788.00;;;;4920388;29;20047;-66
2024/03/19 08:38:33;;;;;;;13.93;9.25;;;;;12.80;98785.00;;;;4920367;29;20091;-68
2024/03/19 08:41:02;;;;;;;12.77;8.30;;;;;12.70;98788.00;;;;4920279;29;20040;-67
2024/03/19 08:43:28;;;;;;;10.98;7.80;;;;;12.80;98796.00;;;;4920432;29;20404;-67
2024/03/19 08:45:53;;;;;;;10.52;7.80;;;;;12.80;98793.00;;;;4917182;29;20134;-67
2024/03/19 08:48:20;;;;;;;12.23;7.28;;;;;13.00;98787.00;;;;4916934;29;20047;-67
2024/03/19 08:50:45;;;;;;;9.77;7.50;;;;;13.10;98797.00;;;;4900122;29;20112;-67
2024/03/19 08:53:11;;;;;;;9.95;7.38;;;;;13.30;98800.00;;;;4901222;29;20040;-66
2024/03/19 08:55:38;;;;;;;11.45;7.65;;;;;13.60;98803.00;;;;4901155;29;20048;-67
2024/03/19 08:58:07;;;;;;;10.15;6.78;;;;;13.90;98799.00;;;;4901419;29;20044;-68
2024/03/19 09:00:33;;;;;;;10.02;7.22;;;;;14.20;98809.00;;;;4900882;29;20048;-67
2024/03/19 09:02:59;;;;;;;11.18;8.48;;;;;14.50;98809.00;;;;4901339;29;20083;-67
2024/03/19 09:05:25;;;;;;;11.98;9.35;;;;;14.50;98814.00;;;;4900847;29;20048;-67
2024/03/19 09:07:51;;;;;;;13.73;7.93;;;;;14.60;98808.00;;;;4901112;29;20048;-68
2024/03/19 09:10:17;;;;;;;9.02;6.85;;;;;14.80;98815.00;;;;4884970;29;20121;-68
2024/03/19 09:12:44;;;;;;;12.32;8.70;;;;;14.90;98821.00;;;;4885326;29;20512;-67
2024/03/19 09:15:12;;;;;;;14.40;8.35;;;;;15.10;98817.00;;;;4917034;29;20055;-67
2024/03/19 09:17:39;;;;;;;11.45;7.35;;;;;15.00;98821.00;;;;4919794;29;20043;-67
2024/03/19 09:20:05;;;;;;;10.70;7.15;;;;;15.10;98814.00;;;;4934136;29;20504;-66
2024/03/19 09:22:32;;;;;;;9.18;7.03;;;;;15.30;98816.00;;;;4919664;29;20095;-67
2024/03/19 09:25:01;;;;;;;8.52;6.75;;;;;15.50;98814.00;;;;4919589;29;20107;-67
2024/03/19 09:27:28;;;;;;;9.77;6.32;;;;;15.50;98817.00;;;;4919499;29;20056;-67
2024/03/19 09:29:55;;;;;;;8.35;7.18;;;;;15.60;98813.00;;;;4919570;29;20047;-67
2024/03/19 09:32:21;;;;;;;15.48;9.45;;;;;15.70;98816.00;;;;4935003;29;20040;-67
2024/03/19 09:34:47;;;;;;;11.02;7.00;;;;;15.90;98823.00;;;;4919439;29;20515;-67
2024/03/19 09:37:12;;;;;;;13.63;8.77;;;;;15.80;98821.00;;;;4919354;29;20047;-67
2024/03/19 09:39:38;;;;;;;10.82;7.97;;;;;15.80;98821.00;;;;4919293;29;20070;-67
2024/03/19 09:42:08;;;;;;;11.82;7.50;;;;;15.80;98823.00;;;;4918735;29;20110;-67
2024/03/19 09:44:34;;;;;;;9.75;6.75;;;;;15.90;98821.00;;;;4919163;29;20055;-66
2024/03/19 09:47:00;;;;;;;9.80;7.28;;;;;15.90;98816.00;;;;4928792;29;20404;-67
2024/03/19 09:49:34;;;;;;;7.75;6.65;;;;;16.00;98823.00;;;;4915852;29;20052;-66
2024/03/19 09:52:04;;;;;;;8.35;6.93;;;;;16.00;98830.00;;;;4916060;29;20539;-66
2024/03/19 09:54:31;;;;;;;9.38;7.28;;;;;16.00;98826.00;;;;4900386;29;20040;-67
2024/03/19 09:56:58;;;;;;;7.72;6.30;;;;;16.10;98828.00;;;;4900507;29;20059;-66
2024/03/19 09:59:28;;;;;;;8.90;7.25;;;;;16.20;98836.00;;;;4900405;29;20493;-66
2024/03/19 10:01:54;;;;;;;8.70;6.53;;;;;16.20;98829.00;;;;4899798;29;20051;-67
2024/03/19 10:04:21;;;;;;;9.70;7.35;;;;;16.20;98826.00;;;;4899946;29;20059;-67
2024/03/19 10:06:47;;;;;;;7.13;6.30;;;;;16.30;98825.00;;;;4900401;29;20104;-67
2024/03/19 10:09:17;;;;;;;11.93;7.20;;;;;16.40;98820.00;;;;4900714;29;20458;-67
2024/03/19 10:11:45;;;;;;;7.85;6.45;;;;;16.40;98824.00;;;;4899996;29;20048;-68
2024/03/19 10:14:12;;;;;;;10.43;6.28;;;;;16.50;98826.00;;;;4899742;29;20314;-68
2024/03/19 10:16:42;;;;;;;7.07;6.03;;;;;16.60;98830.00;;;;4912044;29;20036;-68
2024/03/19 10:19:10;;;;;;;7.78;5.60;;;;;16.70;98825.00;;;;4918998;29;20047;-68
2024/03/19 10:21:36;;;;;;;8.35;6.25;;;;;16.80;98826.00;;;;4918532;29;20060;-68
2024/03/19 10:24:17;;;;;;;9.68;6.68;;;;;16.80;98827.00;;;;4918822;29;20094;-67
2024/03/19 10:26:43;;;;;;;10.00;6.38;;;;;16.80;98824.00;;;;4918778;29;20055;-69
2024/03/19 10:29:14;;;;;;;7.82;5.85;;;;;16.90;98829.00;;;;4918617;29;20059;-69
2024/03/19 10:31:46;;;;;;;7.80;6.32;;;;;17.00;98825.00;;;;4918299;29;20048;-68
2024/03/19 10:34:20;;;;;;;8.43;6.85;;;;;17.00;98826.00;;;;4918288;29;20449;-68
2024/03/19 10:36:48;;;;;;;8.57;6.57;;;;;17.00;98827.00;;;;4918257;29;20087;-68
2024/03/19 10:39:17;;;;;;;8.27;6.85;;;;;17.00;98822.00;;;;4933905;29;20055;-68
2024/03/19 10:41:48;;;;;;;26.23;7.13;;;;;17.10;98825.00;;;;4918123;29;20051;-68
2024/03/19 10:44:19;;;;;;;8.75;6.80;;;;;17.20;98823.00;;;;4918444;29;20059;-70
2024/03/19 10:46:46;;;;;;;8.07;6.70;;;;;17.20;98825.00;;;;4906256;29;20527;-69
2024/03/19 10:49:15;;;;;;;11.55;7.28;;;;;17.20;98816.00;;;;4915015;29;20453;-69
2024/03/19 10:51:51;;;;;;;10.15;6.30;;;;;17.20;98815.00;;;;4899035;29;20524;-70
2024/03/19 10:54:19;;;;;;;8.40;6.10;;;;;17.30;98812.00;;;;4898979;29;20040;-70
2024/03/19 10:56:46;;;;;;;11.35;6.68;;;;;17.40;98819.00;;;;4899207;29;20458;-70
2024/03/19 10:59:13;;;;;;;7.97;6.22;;;;;17.50;98816.00;;;;4899017;29;20413;-70
2024/03/19 11:01:46;;;;;;;8.75;6.65;;;;;17.70;98813.00;;;;4899065;29;20123;-70
2024/03/19 11:04:15;;;;;;;8.10;6.63;;;;;17.70;98808.00;;;;4898972;29;20048;-69
2024/03/19 11:06:53;;;;;;;10.90;6.95;;;;;17.70;98810.00;;;;4883349;29;20040;-69
2024/03/19 11:09:21;;;;;;;12.23;7.40;;;;;17.80;98809.00;;;;4899135;29;20036;-65
2024/03/19 11:11:54;;;;;;;7.65;6.68;;;;;17.90;98808.00;;;;4898889;29;20051;-65
2024/03/19 11:14:22;;;;;;;9.63;7.03;;;;;17.90;98807.00;;;;4898598;29;20051;-66
2024/03/19 11:16:47;;;;;;;9.27;6.07;;;;;18.00;98803.00;;;;4896768;29;20035;-66
2024/03/19 11:19:23;;;;;;;10.20;8.07;;;;;18.20;98800.00;;;;4917669;29;20547;-67
2024/03/19 11:21:53;;;;;;;7.93;5.80;;;;;18.30;98801.00;;;;4933352;29;20102;-66
2024/03/19 11:24:23;;;;;;;10.52;6.03;;;;;18.40;98796.00;;;;4917563;29;20039;-67
2024/03/19 11:27:07;;;;;;;7.95;5.35;;;;;18.40;98801.00;;;;4919246;29;20051;-67
2024/03/19 11:29:37;;;;;;;;;;;;;18.40;98804.00;;;;4902837;29;20059;-67
2024/03/19 11:32:06;;;;;;;9.07;5.88;;;;;18.30;98795.00;;;;4918673;29;19922;-67
2024/03/19 11:34:32;;;;;;;11.43;5.78;;;;;18.40;98791.00;;;;4918107;29;20453;-67
2024/03/19 11:36:59;;;;;;;8.63;5.38;;;;;18.50;98792.00;;;;4917629;29;20063;-67
2024/03/19 11:39:25;;;;;;;9.35;5.28;;;;;18.60;98788.00;;;;4918076;29;20044;-67
2024/03/19 11:41:51;;;;;;;8.88;5.43;;;;;18.60;98792.00;;;;4917507;29;20048;-67
2024/03/19 11:44:22;;;;;;;8.40;4.72;;;;;18.60;98788.00;;;;4917773;29;20488;-67
2024/03/19 11:46:50;;;;;;;6.22;4.70;;;;;18.70;98781.00;;;;4933210;29;20040;-66
2024/03/19 11:49:29;;;;;;;6.90;4.00;;;;;18.70;98796.00;;;;4933509;29;20059;-66
2024/03/19 11:52:07;;;;;;;8.30;4.20;;;;;18.60;98784.00;;;;4917377;29;20044;-67
2024/03/19 11:54:39;;;;;;;5.32;4.22;;;;;18.70;98779.00;;;;4917662;29;20043;-66
2024/03/19 11:57:05;;;;;;;5.57;3.92;;;;;18.70;98781.00;;;;4917809;29;20500;-66
2024/03/19 11:59:31;;;;;;;7.35;4.15;;;;;18.80;98780.00;;;;4917325;29;20106;-66
2024/03/19 12:01:58;;;;;;;7.05;4.30;;;;;18.80;98778.00;;;;4917696;29;20404;-66
2024/03/19 12:04:25;;;;;;;3.97;3.22;;;;;19.00;98765.00;;;;4918414;29;20043;-67
2024/03/19 12:06:51;;;;;;;7.68;3.20;;;;;19.20;98767.00;;;;4933322;29;20039;-67
2024/03/19 12:09:19;;;;;;;6.82;3.78;;;;;19.30;98764.00;;;;4917614;29;20039;-67
2024/03/19 12:11:45;;;;;;;4.70;3.60;;;;;19.30;98760.00;;;;4917442;29;20044;-67
2024/03/19 12:14:16;;;;;;;4.85;3.38;;;;;19.50;98768.00;;;;4917602;29;20044;-67
2024/03/19 12:16:43;;;;;;;5.15;2.95;;;;;19.60;98754.00;;;;4914285;29;20047;-68